createdAt,value
2016-10-25T00:01:05.652Z,0
2016-10-25T00:02:16.489Z,0
2016-10-25T00:03:27.298Z,0
2016-10-25T00:04:38.108Z,0
2016-10-25T00:05:48.802Z,0
2016-10-25T00:06:59.667Z,0
2016-10-25T00:08:10.516Z,0
2016-10-25T00:09:21.332Z,0
2016-10-25T00:10:32.144Z,0
2016-10-25T00:11:42.969Z,0
2016-10-25T00:12:53.728Z,0
2016-10-25T00:14:04.523Z,0
2016-10-25T00:15:15.221Z,0
2016-10-25T00:16:26.048Z,0
2016-10-25T00:17:36.802Z,0
2016-10-25T00:18:47.631Z,0
2016-10-25T00:19:58.374Z,0
2016-10-25T00:21:09.202Z,0
2016-10-25T00:22:19.950Z,0
2016-10-25T00:23:30.762Z,0
2016-10-25T00:24:41.620Z,0
2016-10-25T00:25:52.462Z,0
2016-10-25T00:27:03.271Z,0
2016-10-25T00:28:14.124Z,0
2016-10-25T00:29:24.946Z,0
2016-10-25T00:30:35.818Z,0
2016-10-25T00:31:47.264Z,0
2016-10-25T00:32:58.039Z,0
2016-10-25T00:34:08.822Z,0
2016-10-25T00:35:19.562Z,0
2016-10-25T00:36:30.381Z,0
2016-10-25T00:37:41.119Z,0
2016-10-25T00:38:52.447Z,0
2016-10-25T00:40:03.198Z,0
2016-10-25T00:41:13.981Z,0
2016-10-25T00:42:24.717Z,0
2016-10-25T00:43:35.571Z,0
2016-10-25T00:44:46.340Z,0
2016-10-25T00:45:57.130Z,0
2016-10-25T00:47:07.962Z,0
2016-10-25T00:48:18.763Z,0
2016-10-25T00:49:29.601Z,0
2016-10-25T00:50:40.412Z,0
2016-10-25T00:51:51.488Z,0
2016-10-25T00:53:02.225Z,0
2016-10-25T00:54:12.968Z,0
2016-10-25T00:55:23.724Z,0
2016-10-25T00:56:34.566Z,0
2016-10-25T00:57:45.298Z,0
2016-10-25T00:58:56.176Z,0
2016-10-25T01:00:06.929Z,0
2016-10-25T01:01:17.824Z,0
2016-10-25T01:02:29.081Z,0
2016-10-25T01:03:39.874Z,0
2016-10-25T01:04:50.670Z,0
2016-10-25T01:06:01.363Z,0
2016-10-25T01:07:12.689Z,0
2016-10-25T01:08:23.529Z,0
2016-10-25T01:09:34.322Z,0
2016-10-25T01:10:45.190Z,0
2016-10-25T01:11:56.071Z,0
2016-10-25T01:13:06.859Z,0
2016-10-25T01:14:17.591Z,0
2016-10-25T01:15:28.369Z,0
2016-10-25T01:16:39.317Z,0
2016-10-25T01:17:50.113Z,0
2016-10-25T01:19:00.943Z,0
2016-10-25T01:20:11.797Z,0
2016-10-25T01:21:22.566Z,0
2016-10-25T01:22:33.420Z,0
2016-10-25T01:23:44.309Z,0
2016-10-25T01:24:55.081Z,0
2016-10-25T01:26:05.843Z,0
2016-10-25T01:27:16.637Z,0
2016-10-25T01:28:27.561Z,0
2016-10-25T01:29:38.396Z,0
2016-10-25T01:30:49.295Z,0
2016-10-25T01:32:00.070Z,0
2016-10-25T01:33:10.875Z,0
2016-10-25T01:34:21.646Z,0
2016-10-25T01:35:32.440Z,0
2016-10-25T01:36:43.271Z,0
2016-10-25T01:37:54.009Z,0
2016-10-25T01:39:04.791Z,0
2016-10-25T01:40:16.128Z,0
2016-10-25T01:41:26.937Z,0
2016-10-25T01:42:37.687Z,0
2016-10-25T01:43:48.537Z,0
2016-10-25T01:44:59.399Z,0
2016-10-25T01:46:10.325Z,0
2016-10-25T01:47:21.066Z,0
2016-10-25T01:48:32.388Z,0
2016-10-25T01:49:43.207Z,0
2016-10-25T01:50:53.954Z,0
2016-10-25T01:52:05.236Z,0
2016-10-25T01:53:16.041Z,0
2016-10-25T01:54:26.772Z,0
2016-10-25T01:55:37.625Z,0
2016-10-25T01:56:48.433Z,0
2016-10-25T01:57:59.219Z,0
2016-10-25T01:59:09.974Z,0
2016-10-25T02:00:20.743Z,0
2016-10-25T02:01:31.627Z,0
2016-10-25T02:02:42.387Z,0
2016-10-25T02:03:53.232Z,0
2016-10-25T02:05:04.499Z,0
2016-10-25T02:06:15.262Z,0
2016-10-25T02:07:26.133Z,0
2016-10-25T02:08:36.960Z,0
2016-10-25T02:09:47.802Z,0
2016-10-25T02:10:58.705Z,0
2016-10-25T02:12:09.484Z,0
2016-10-25T02:13:20.405Z,0
2016-10-25T02:14:31.731Z,0
2016-10-25T02:15:42.504Z,0
2016-10-25T02:16:53.346Z,0
2016-10-25T02:18:04.111Z,0
2016-10-25T02:19:15.162Z,0
2016-10-25T02:20:26.098Z,0
2016-10-25T02:21:36.934Z,0
2016-10-25T02:22:47.833Z,0
2016-10-25T02:23:58.669Z,0
2016-10-25T02:25:09.473Z,0
2016-10-25T02:26:20.309Z,0
2016-10-25T02:27:31.349Z,0
2016-10-25T02:28:42.180Z,0
2016-10-25T02:29:53.050Z,0
2016-10-25T02:31:03.870Z,0
2016-10-25T02:32:14.659Z,0
2016-10-25T02:33:25.450Z,0
2016-10-25T02:34:36.329Z,0
2016-10-25T02:35:47.221Z,0
2016-10-25T02:36:58.080Z,0
2016-10-25T02:38:08.833Z,0
2016-10-25T02:39:19.656Z,0
2016-10-25T02:40:30.995Z,0
2016-10-25T02:41:41.764Z,0
2016-10-25T02:42:52.606Z,0
2016-10-25T02:44:03.439Z,0
2016-10-25T02:45:14.260Z,0
2016-10-25T02:46:25.090Z,0
2016-10-25T02:47:35.868Z,0
2016-10-25T02:48:47.315Z,0
2016-10-25T02:49:58.064Z,0
2016-10-25T02:51:08.845Z,0
2016-10-25T02:52:19.659Z,0
2016-10-25T02:53:30.505Z,0
2016-10-25T02:54:41.507Z,0
2016-10-25T02:55:52.325Z,0
2016-10-25T02:57:03.227Z,0
2016-10-25T02:58:14.069Z,0
2016-10-25T02:59:24.884Z,0
2016-10-25T03:00:35.665Z,0
2016-10-25T03:01:46.485Z,0
2016-10-25T03:02:57.380Z,0
2016-10-25T03:04:08.091Z,0
2016-10-25T03:05:18.976Z,0
2016-10-25T03:06:29.805Z,0
2016-10-25T03:07:40.603Z,0
2016-10-25T03:08:51.371Z,0
2016-10-25T03:10:02.113Z,0
2016-10-25T03:11:12.934Z,0
2016-10-25T03:12:23.732Z,0
2016-10-25T03:13:34.497Z,0
2016-10-25T03:14:45.259Z,0
2016-10-25T03:15:56.067Z,0
2016-10-25T03:17:06.824Z,0
2016-10-25T03:18:17.605Z,0
2016-10-25T03:19:28.466Z,0
2016-10-25T03:20:39.231Z,0
2016-10-25T03:21:50.095Z,0
2016-10-25T03:23:00.974Z,0
2016-10-25T03:24:11.767Z,0
2016-10-25T03:25:23.057Z,0
2016-10-25T03:26:34.584Z,0
2016-10-25T03:27:45.358Z,0
2016-10-25T03:28:56.160Z,0
2016-10-25T03:30:06.920Z,0
2016-10-25T03:31:17.768Z,0
2016-10-25T03:32:28.607Z,0
2016-10-25T03:33:39.388Z,0
2016-10-25T03:34:50.241Z,0
2016-10-25T03:36:01.090Z,0
2016-10-25T03:37:11.894Z,0
2016-10-25T03:38:22.703Z,0
2016-10-25T03:39:33.626Z,0
2016-10-25T03:40:44.409Z,0
2016-10-25T03:41:55.255Z,0
2016-10-25T03:43:06.018Z,0
2016-10-25T03:44:16.815Z,0
2016-10-25T03:45:27.574Z,0
2016-10-25T03:46:38.302Z,0
2016-10-25T03:47:49.066Z,0
2016-10-25T03:48:59.842Z,0
2016-10-25T03:50:10.586Z,0
2016-10-25T03:51:21.457Z,0
2016-10-25T03:52:32.262Z,0
2016-10-25T03:53:42.978Z,0
2016-10-25T03:54:53.781Z,0
2016-10-25T03:56:04.624Z,0
2016-10-25T03:57:15.449Z,0
2016-10-25T03:58:26.254Z,0
2016-10-25T03:59:38.048Z,0
2016-10-25T04:00:48.897Z,0
2016-10-25T04:01:59.699Z,0
2016-10-25T04:03:10.487Z,0
2016-10-25T04:04:21.831Z,0
2016-10-25T04:05:32.680Z,0
2016-10-25T04:06:43.448Z,0
2016-10-25T04:07:54.246Z,0
2016-10-25T04:09:05.050Z,0
2016-10-25T04:10:15.819Z,0
2016-10-25T04:11:26.627Z,0
2016-10-25T04:12:37.389Z,0
2016-10-25T04:13:48.197Z,0
2016-10-25T04:14:59.082Z,0
2016-10-25T04:16:09.953Z,0
2016-10-25T04:17:20.786Z,0
2016-10-25T04:18:32.076Z,0
2016-10-25T04:19:42.888Z,0
2016-10-25T04:20:53.691Z,0
2016-10-25T04:22:04.975Z,0
2016-10-25T04:23:15.858Z,0
2016-10-25T04:24:26.645Z,0
2016-10-25T04:25:37.476Z,0
2016-10-25T04:26:48.733Z,0
2016-10-25T04:27:59.498Z,0
2016-10-25T04:29:10.232Z,0
2016-10-25T04:30:21.050Z,0
2016-10-25T04:31:31.862Z,0
2016-10-25T04:32:42.661Z,0
2016-10-25T04:33:53.513Z,0
2016-10-25T04:35:04.275Z,0
2016-10-25T04:36:14.989Z,0
2016-10-25T04:37:26.406Z,0
2016-10-25T04:38:37.185Z,0
2016-10-25T04:39:47.923Z,0
2016-10-25T04:40:58.657Z,0
2016-10-25T04:42:09.384Z,0
2016-10-25T04:43:20.085Z,0
2016-10-25T04:44:30.801Z,0
2016-10-25T04:45:41.483Z,0
2016-10-25T04:46:52.709Z,0
2016-10-25T04:48:03.392Z,0
2016-10-25T04:49:14.111Z,0
2016-10-25T04:50:24.834Z,0
2016-10-25T04:51:35.558Z,0
2016-10-25T04:52:46.254Z,0
2016-10-25T04:53:57.083Z,0
2016-10-25T04:55:08.513Z,0
2016-10-25T04:56:19.200Z,0
2016-10-25T04:57:29.913Z,0
2016-10-25T04:58:40.667Z,0
2016-10-25T04:59:51.396Z,0
2016-10-25T05:01:02.080Z,0
2016-10-25T05:02:12.769Z,0
2016-10-25T05:03:23.493Z,0
2016-10-25T05:04:34.235Z,0
2016-10-25T05:05:45.062Z,0
2016-10-25T05:06:55.749Z,0
2016-10-25T05:08:06.449Z,0
2016-10-25T05:09:17.165Z,0
2016-10-25T05:10:27.873Z,0
2016-10-25T05:11:38.572Z,0
2016-10-25T05:12:49.312Z,0
2016-10-25T05:14:00.053Z,0
2016-10-25T05:15:10.806Z,0
2016-10-25T05:16:21.588Z,0
2016-10-25T05:17:32.285Z,0
2016-10-25T05:18:43.551Z,0
2016-10-25T05:19:54.240Z,0
2016-10-25T05:21:04.937Z,0
2016-10-25T05:22:15.923Z,0
2016-10-25T05:23:26.719Z,0
2016-10-25T05:24:37.435Z,0
2016-10-25T05:25:48.166Z,0
2016-10-25T05:26:58.890Z,0
2016-10-25T05:28:09.604Z,0
2016-10-25T05:29:20.330Z,0
2016-10-25T05:30:31.062Z,0
2016-10-25T05:31:41.764Z,0
2016-10-25T05:32:52.498Z,0
2016-10-25T05:34:03.185Z,0
2016-10-25T05:35:14.234Z,0
2016-10-25T05:36:24.952Z,0
2016-10-25T05:37:35.747Z,0
2016-10-25T05:38:46.458Z,0
2016-10-25T05:39:57.151Z,0
2016-10-25T05:41:08.831Z,0
2016-10-25T05:42:19.560Z,0
2016-10-25T05:43:30.280Z,0
2016-10-25T05:44:40.989Z,0
2016-10-25T05:45:51.698Z,0
2016-10-25T05:47:02.387Z,0
2016-10-25T05:48:13.110Z,0
2016-10-25T05:49:23.831Z,0
2016-10-25T05:50:34.558Z,0
2016-10-25T05:51:45.276Z,0
2016-10-25T05:52:55.971Z,0
2016-10-25T05:54:06.710Z,0
2016-10-25T05:55:17.387Z,0
2016-10-25T05:56:28.081Z,0
2016-10-25T05:57:38.778Z,0
2016-10-25T05:58:49.972Z,0
2016-10-25T06:00:00.692Z,0
2016-10-25T06:01:12.440Z,0
2016-10-25T06:02:23.138Z,0
2016-10-25T06:03:33.827Z,0
2016-10-25T06:04:44.532Z,0
2016-10-25T06:05:55.255Z,0
2016-10-25T06:07:05.967Z,0
2016-10-25T06:08:16.705Z,0
2016-10-25T06:09:27.943Z,0
2016-10-25T06:10:38.624Z,0
2016-10-25T06:11:49.505Z,0
2016-10-25T06:13:00.241Z,0
2016-10-25T06:14:10.943Z,0
2016-10-25T06:15:21.656Z,0
2016-10-25T06:16:32.381Z,0
2016-10-25T06:17:43.303Z,0
2016-10-25T06:18:54.158Z,0
2016-10-25T06:20:04.965Z,0
2016-10-25T06:21:15.668Z,0
2016-10-25T06:22:26.378Z,0
2016-10-25T06:23:37.078Z,0
2016-10-25T06:24:47.781Z,0
2016-10-25T06:25:59.116Z,0
2016-10-25T06:27:09.848Z,0
2016-10-25T06:28:20.563Z,0
2016-10-25T06:29:31.271Z,0
2016-10-25T06:30:41.972Z,0
2016-10-25T06:31:52.911Z,0
2016-10-25T06:33:03.610Z,0
2016-10-25T06:34:14.397Z,0
2016-10-25T06:35:25.112Z,0
2016-10-25T06:36:35.821Z,0
2016-10-25T06:37:46.534Z,0
2016-10-25T06:38:57.247Z,0
2016-10-25T06:40:08.139Z,0
2016-10-25T06:41:18.947Z,0
2016-10-25T06:42:29.664Z,0
2016-10-25T06:43:40.385Z,0
2016-10-25T06:44:51.105Z,0
2016-10-25T06:46:01.817Z,0
2016-10-25T06:47:12.530Z,0
2016-10-25T06:48:23.253Z,0
2016-10-25T06:49:33.951Z,0
2016-10-25T06:50:44.731Z,0
2016-10-25T06:51:55.430Z,0
2016-10-25T06:53:06.156Z,0
2016-10-25T06:54:16.889Z,0
2016-10-25T06:55:27.629Z,0
2016-10-25T06:56:38.433Z,0
2016-10-25T06:57:49.214Z,0
2016-10-25T06:58:59.937Z,0
2016-10-25T07:00:10.647Z,0
2016-10-25T07:01:21.338Z,0
2016-10-25T07:02:32.038Z,0
2016-10-25T07:03:42.757Z,0
2016-10-25T07:04:53.473Z,0
2016-10-25T07:06:04.158Z,0
2016-10-25T07:07:15.353Z,0
2016-10-25T07:08:26.548Z,0
2016-10-25T07:09:37.268Z,0
2016-10-25T07:10:47.966Z,0
2016-10-25T07:11:59.535Z,0
2016-10-25T07:13:10.261Z,0
2016-10-25T07:14:20.986Z,0
2016-10-25T07:15:31.696Z,0
2016-10-25T07:16:42.397Z,0
2016-10-25T07:17:53.099Z,0
2016-10-25T07:19:03.774Z,0
2016-10-25T07:20:15.490Z,0
2016-10-25T07:21:26.178Z,0
2016-10-25T07:22:36.919Z,0
2016-10-25T07:23:47.670Z,0
2016-10-25T07:25:00.011Z,0
2016-10-25T07:26:10.730Z,0
2016-10-25T07:27:21.449Z,0
2016-10-25T07:28:32.163Z,0
2016-10-25T07:29:42.862Z,0
2016-10-25T07:30:53.782Z,0
2016-10-25T07:32:04.493Z,0
2016-10-25T07:33:15.183Z,0
2016-10-25T07:34:25.890Z,0
2016-10-25T07:35:36.617Z,0
2016-10-25T07:36:47.491Z,0
2016-10-25T07:37:58.225Z,0
2016-10-25T07:39:09.014Z,0
2016-10-25T07:40:19.735Z,0
2016-10-25T07:41:31.262Z,0
2016-10-25T07:42:41.969Z,0
2016-10-25T07:43:52.676Z,0
2016-10-25T07:45:03.416Z,0
2016-10-25T07:46:14.666Z,0
2016-10-25T07:47:25.391Z,0
2016-10-25T07:48:36.644Z,0
2016-10-25T07:49:47.389Z,0
2016-10-25T07:50:58.077Z,0
2016-10-25T07:52:09.343Z,0
2016-10-25T07:53:20.066Z,0
2016-10-25T07:54:31.314Z,0
2016-10-25T07:55:42.354Z,0
2016-10-25T07:56:53.128Z,0
2016-10-25T07:58:03.907Z,0
2016-10-25T07:59:14.602Z,0
2016-10-25T08:00:25.334Z,0
2016-10-25T08:01:36.036Z,0
2016-10-25T08:02:46.869Z,0
2016-10-25T08:03:57.547Z,0
2016-10-25T08:05:08.257Z,0
2016-10-25T08:06:19.269Z,0
2016-10-25T08:07:30.260Z,4
2016-10-25T08:08:41.242Z,4
2016-10-25T08:09:51.982Z,4
2016-10-25T08:11:03.186Z,8
2016-10-25T08:12:13.903Z,8
2016-10-25T08:13:25.243Z,8
2016-10-25T08:14:36.147Z,16
2016-10-25T08:15:46.848Z,20
2016-10-25T08:16:57.533Z,24
2016-10-25T08:18:08.239Z,32
2016-10-25T08:19:18.955Z,40
2016-10-25T08:20:29.704Z,44
2016-10-25T08:21:40.395Z,52
2016-10-25T08:22:51.107Z,60
2016-10-25T08:24:01.837Z,64
2016-10-25T08:25:13.633Z,68
2016-10-25T08:26:24.326Z,80
2016-10-25T08:27:35.062Z,100
2016-10-25T08:28:45.783Z,152
2016-10-25T08:29:56.506Z,188
2016-10-25T08:31:07.220Z,232
2016-10-25T08:32:18.654Z,280
2016-10-25T08:33:29.374Z,312
2016-10-25T08:34:40.105Z,364
2016-10-25T08:35:50.838Z,448
2016-10-25T08:37:01.740Z,488
2016-10-25T08:38:12.511Z,552
2016-10-25T08:39:23.246Z,660
2016-10-25T08:40:33.938Z,744
2016-10-25T08:41:44.661Z,820
2016-10-25T08:42:55.374Z,860
2016-10-25T08:44:06.075Z,932
2016-10-25T08:45:16.770Z,904
2016-10-25T08:46:27.483Z,964
2016-10-25T08:47:38.196Z,1184
2016-10-25T08:48:48.904Z,1352
2016-10-25T08:49:59.595Z,1492
2016-10-25T08:51:10.335Z,1604
2016-10-25T08:52:21.098Z,1696
2016-10-25T08:53:31.799Z,1640
2016-10-25T08:54:42.510Z,1788
2016-10-25T08:55:53.239Z,2128
2016-10-25T08:57:03.953Z,2296
2016-10-25T08:58:14.702Z,2412
2016-10-25T08:59:26.278Z,2420
2016-10-25T09:00:37.012Z,2488
2016-10-25T09:01:47.750Z,2564
2016-10-25T09:02:58.473Z,2592
2016-10-25T09:04:09.287Z,2624
2016-10-25T09:05:20.046Z,2856
2016-10-25T09:06:30.777Z,2960
2016-10-25T09:07:41.481Z,3020
2016-10-25T09:08:52.181Z,3184
2016-10-25T09:10:02.883Z,3336
2016-10-25T09:11:13.592Z,3440
2016-10-25T09:12:24.302Z,3476
2016-10-25T09:13:35.155Z,3592
2016-10-25T09:14:46.095Z,3620
2016-10-25T09:15:56.797Z,3984
2016-10-25T09:17:07.516Z,4156
2016-10-25T09:18:18.733Z,4480
2016-10-25T09:19:29.492Z,4648
2016-10-25T09:20:40.239Z,4576
2016-10-25T09:21:50.939Z,5348
2016-10-25T09:23:01.639Z,5788
2016-10-25T09:24:12.333Z,6372
2016-10-25T09:25:23.090Z,6672
2016-10-25T09:26:34.484Z,6864
2016-10-25T09:27:45.262Z,7036
2016-10-25T09:28:55.951Z,7208
2016-10-25T09:30:06.661Z,7220
2016-10-25T09:31:17.348Z,7176
2016-10-25T09:32:28.271Z,7304
2016-10-25T09:33:40.002Z,7364
2016-10-25T09:34:51.221Z,7392
2016-10-25T09:36:02.004Z,7184
2016-10-25T09:37:12.723Z,6444
2016-10-25T09:38:23.984Z,5968
2016-10-25T09:39:34.712Z,5692
2016-10-25T09:40:45.420Z,5536
2016-10-25T09:41:56.137Z,5484
2016-10-25T09:43:06.854Z,5784
2016-10-25T09:44:17.558Z,6012
2016-10-25T09:45:28.294Z,6672
2016-10-25T09:46:40.122Z,6984
2016-10-25T09:47:50.799Z,6908
2016-10-25T09:49:02.321Z,6932
2016-10-25T09:50:13.198Z,7132
2016-10-25T09:51:23.926Z,6976
2016-10-25T09:52:34.652Z,6884
2016-10-25T09:53:45.375Z,7232
2016-10-25T09:54:56.077Z,7416
2016-10-25T09:56:06.808Z,7572
2016-10-25T09:57:17.500Z,8036
2016-10-25T09:58:28.206Z,8156
2016-10-25T09:59:38.915Z,8480
2016-10-25T10:00:49.616Z,8468
2016-10-25T10:02:00.318Z,8684
2016-10-25T10:03:11.544Z,9264
2016-10-25T10:04:22.281Z,10304
2016-10-25T10:05:33.015Z,11492
2016-10-25T10:06:43.745Z,12848
2016-10-25T10:07:54.460Z,13360
2016-10-25T10:09:05.199Z,13336
2016-10-25T10:10:15.909Z,13296
2016-10-25T10:11:26.702Z,12808
2016-10-25T10:12:37.409Z,12864
2016-10-25T10:13:48.155Z,13832
2016-10-25T10:14:58.857Z,15444
2016-10-25T10:16:09.636Z,16928
2016-10-25T10:17:20.380Z,18656
2016-10-25T10:18:31.595Z,20064
2016-10-25T10:19:42.321Z,20288
2016-10-25T10:20:53.013Z,19712
2016-10-25T10:22:03.724Z,16644
2016-10-25T10:23:14.965Z,19104
2016-10-25T10:24:25.675Z,20768
2016-10-25T10:25:36.395Z,21600
2016-10-25T10:26:47.112Z,23136
2016-10-25T10:27:57.808Z,22272
2016-10-25T10:29:08.528Z,24256
2016-10-25T10:30:19.263Z,24800
2016-10-25T10:31:29.995Z,25280
2016-10-25T10:32:40.710Z,28576
2016-10-25T10:33:51.399Z,31712
2016-10-25T10:35:02.212Z,55616
2016-10-25T10:36:12.924Z,39392
2016-10-25T10:37:23.686Z,70912
2016-10-25T10:38:34.403Z,72320
2016-10-25T10:39:45.100Z,87104
2016-10-25T10:40:55.805Z,78560
2016-10-25T10:42:06.520Z,39360
2016-10-25T10:43:17.280Z,33184
2016-10-25T10:44:28.057Z,30048
2016-10-25T10:45:38.826Z,27392
2016-10-25T10:46:49.556Z,26400
2016-10-25T10:48:00.260Z,26048
2016-10-25T10:49:10.991Z,26304
2016-10-25T10:50:21.701Z,25760
2016-10-25T10:51:32.452Z,25152
2016-10-25T10:52:43.233Z,25376
2016-10-25T10:53:53.957Z,25120
2016-10-25T10:55:05.303Z,23488
2016-10-25T10:56:16.558Z,23072
2016-10-25T10:57:27.275Z,23648
2016-10-25T10:58:37.985Z,24928
2016-10-25T10:59:48.730Z,26208
2016-10-25T11:00:59.443Z,27456
2016-10-25T11:02:10.184Z,26112
2016-10-25T11:03:20.888Z,23776
2016-10-25T11:04:31.591Z,26560
2016-10-25T11:05:43.772Z,25888
2016-10-25T11:06:55.191Z,22752
2016-10-25T11:08:05.949Z,19360
2016-10-25T11:09:16.666Z,16488
2016-10-25T11:10:27.394Z,14436
2016-10-25T11:11:38.085Z,11640
2016-10-25T11:12:48.785Z,10760
2016-10-25T11:13:59.535Z,10452
2016-10-25T11:15:10.789Z,8972
2016-10-25T11:16:22.031Z,8544
2016-10-25T11:17:32.754Z,9436
2016-10-25T11:18:43.472Z,12048
2016-10-25T11:19:54.189Z,14288
2016-10-25T11:21:04.906Z,16472
2016-10-25T11:22:15.706Z,16136
2016-10-25T11:23:26.477Z,14524
2016-10-25T11:24:38.879Z,14408
2016-10-25T11:25:50.092Z,16600
2016-10-25T11:27:01.456Z,19904
2016-10-25T11:28:12.732Z,19552
2016-10-25T11:29:23.438Z,21664
2016-10-25T11:30:34.158Z,21408
2016-10-25T11:31:44.861Z,19776
2016-10-25T11:32:55.704Z,19488
2016-10-25T11:34:06.431Z,19456
2016-10-25T11:35:17.159Z,18944
2016-10-25T11:36:27.897Z,17348
2016-10-25T11:37:38.600Z,15492
2016-10-25T11:38:49.409Z,15696
2016-10-25T11:40:00.131Z,16620
2016-10-25T11:41:11.347Z,17856
2016-10-25T11:42:22.074Z,18272
2016-10-25T11:43:33.328Z,17632
2016-10-25T11:44:44.040Z,16440
2016-10-25T11:45:54.723Z,16576
2016-10-25T11:47:05.505Z,18528
2016-10-25T11:48:16.209Z,19744
2016-10-25T11:49:27.357Z,20352
2016-10-25T11:50:38.068Z,20480
2016-10-25T11:51:48.788Z,20928
2016-10-25T11:52:59.644Z,22208
2016-10-25T11:54:10.354Z,22656
2016-10-25T11:55:21.078Z,23040
2016-10-25T11:56:31.795Z,23552
2016-10-25T11:57:42.503Z,24416
2016-10-25T11:58:53.201Z,25472
2016-10-25T12:00:03.932Z,26528
2016-10-25T12:01:14.639Z,27488
2016-10-25T12:02:25.326Z,28544
2016-10-25T12:03:36.027Z,29504
2016-10-25T12:04:47.228Z,29920
2016-10-25T12:05:57.941Z,30016
2016-10-25T12:07:08.697Z,29856
2016-10-25T12:08:19.394Z,29760
2016-10-25T12:09:30.131Z,29888
2016-10-25T12:10:40.864Z,29632
2016-10-25T12:11:51.623Z,28928
2016-10-25T12:13:02.862Z,27904
2016-10-25T12:14:13.575Z,27008
2016-10-25T12:15:24.301Z,26400
2016-10-25T12:16:35.017Z,25856
2016-10-25T12:17:45.728Z,25120
2016-10-25T12:18:56.432Z,24256
2016-10-25T12:20:07.146Z,23296
2016-10-25T12:21:18.373Z,22240
2016-10-25T12:22:29.079Z,21696
2016-10-25T12:23:39.769Z,21472
2016-10-25T12:24:50.501Z,21440
2016-10-25T12:26:01.236Z,21248
2016-10-25T12:27:11.959Z,21024
2016-10-25T12:28:23.185Z,20800
2016-10-25T12:29:33.893Z,20640
2016-10-25T12:30:44.597Z,20672
2016-10-25T12:31:55.882Z,20864
2016-10-25T12:33:06.607Z,21408
2016-10-25T12:34:17.330Z,22336
2016-10-25T12:35:28.020Z,23648
2016-10-25T12:36:38.782Z,25088
2016-10-25T12:37:49.504Z,26464
2016-10-25T12:39:00.203Z,27808
2016-10-25T12:40:10.920Z,28704
2016-10-25T12:41:22.142Z,29280
2016-10-25T12:42:32.872Z,29440
2016-10-25T12:43:43.573Z,29024
2016-10-25T12:44:54.258Z,27840
2016-10-25T12:46:04.961Z,26048
2016-10-25T12:47:15.663Z,23904
2016-10-25T12:48:26.357Z,21888
2016-10-25T12:49:37.098Z,20224
2016-10-25T12:50:47.800Z,19072
2016-10-25T12:51:58.534Z,18432
2016-10-25T12:53:09.268Z,18048
2016-10-25T12:54:21.862Z,17952
2016-10-25T12:55:32.567Z,18048
2016-10-25T12:56:43.262Z,18624
2016-10-25T12:57:54.547Z,19552
2016-10-25T12:59:05.802Z,20768
2016-10-25T13:00:16.518Z,22368
2016-10-25T13:01:27.286Z,23904
2016-10-25T13:02:37.997Z,25376
2016-10-25T13:03:48.729Z,26976
2016-10-25T13:04:59.439Z,28480
2016-10-25T13:06:10.170Z,29760
2016-10-25T13:07:20.881Z,30464
2016-10-25T13:08:31.599Z,30656
2016-10-25T13:09:42.311Z,30400
2016-10-25T13:10:53.097Z,30144
2016-10-25T13:12:04.090Z,29984
2016-10-25T13:13:14.805Z,30080
2016-10-25T13:14:25.527Z,30304
2016-10-25T13:15:36.226Z,30848
2016-10-25T13:16:46.947Z,31648
2016-10-25T13:17:57.668Z,32352
2016-10-25T13:19:08.363Z,32864
2016-10-25T13:20:19.051Z,32480
2016-10-25T13:21:29.785Z,32288
2016-10-25T13:22:40.487Z,32352
2016-10-25T13:23:51.208Z,31712
2016-10-25T13:25:02.481Z,30592
2016-10-25T13:26:13.180Z,29472
2016-10-25T13:27:23.878Z,29280
2016-10-25T13:28:34.598Z,29664
2016-10-25T13:29:45.331Z,30912
2016-10-25T13:30:56.028Z,32224
2016-10-25T13:32:07.279Z,32352
2016-10-25T13:33:17.986Z,32608
2016-10-25T13:34:28.707Z,32704
2016-10-25T13:35:39.474Z,25024
2016-10-25T13:36:50.251Z,14276
2016-10-25T13:38:00.972Z,31072
2016-10-25T13:39:11.723Z,30752
2016-10-25T13:40:22.442Z,31904
2016-10-25T13:41:33.219Z,32320
2016-10-25T13:42:43.980Z,33120
2016-10-25T13:43:54.700Z,34144
2016-10-25T13:45:05.416Z,34400
2016-10-25T13:46:16.125Z,34336
2016-10-25T13:47:26.825Z,33504
2016-10-25T13:48:37.532Z,32608
2016-10-25T13:49:48.245Z,31936
2016-10-25T13:50:58.960Z,31296
2016-10-25T13:52:10.177Z,30816
2016-10-25T13:53:21.396Z,30496
2016-10-25T13:54:32.093Z,30304
2016-10-25T13:55:42.800Z,30688
2016-10-25T13:56:53.551Z,31648
2016-10-25T13:58:04.790Z,33664
2016-10-25T13:59:15.574Z,36096
2016-10-25T14:00:26.291Z,39584
2016-10-25T14:01:37.019Z,39904
2016-10-25T14:02:47.753Z,39008
2016-10-25T14:03:58.463Z,40256
2016-10-25T14:05:09.215Z,40864
2016-10-25T14:06:19.954Z,42368
2016-10-25T14:07:30.697Z,45888
2016-10-25T14:08:41.395Z,47392
2016-10-25T14:09:52.121Z,49280
2016-10-25T14:11:02.866Z,50944
2016-10-25T14:12:13.621Z,50720
2016-10-25T14:13:24.332Z,53184
2016-10-25T14:14:35.055Z,56736
2016-10-25T14:15:45.786Z,60032
2016-10-25T14:16:56.504Z,55328
2016-10-25T14:18:07.214Z,50304
2016-10-25T14:19:17.910Z,48224
2016-10-25T14:20:28.628Z,45600
2016-10-25T14:21:39.410Z,44192
2016-10-25T14:22:50.341Z,43680
2016-10-25T14:24:01.053Z,44288
2016-10-25T14:25:11.752Z,45888
2016-10-25T14:26:22.475Z,48160
2016-10-25T14:27:33.163Z,52544
2016-10-25T14:28:43.900Z,54592
2016-10-25T14:29:55.137Z,55616
2016-10-25T14:31:05.912Z,55456
2016-10-25T14:32:16.646Z,53216
2016-10-25T14:33:27.464Z,50912
2016-10-25T14:34:38.667Z,52640
2016-10-25T14:35:49.446Z,47808
2016-10-25T14:37:00.149Z,43776
2016-10-25T14:38:12.172Z,40160
2016-10-25T14:39:23.192Z,36864
2016-10-25T14:40:33.917Z,34784
2016-10-25T14:41:44.683Z,33536
2016-10-25T14:42:55.394Z,32384
2016-10-25T14:44:06.107Z,31296
2016-10-25T14:45:16.826Z,30144
2016-10-25T14:46:27.673Z,28992
2016-10-25T14:47:38.400Z,27904
2016-10-25T14:48:49.114Z,26912
2016-10-25T14:49:59.870Z,25792
2016-10-25T14:51:10.574Z,24768
2016-10-25T14:52:21.305Z,23968
2016-10-25T14:53:32.036Z,23456
2016-10-25T14:54:42.758Z,23552
2016-10-25T14:55:53.460Z,23968
2016-10-25T14:57:04.172Z,24448
2016-10-25T14:58:14.912Z,24480
2016-10-25T14:59:25.646Z,24320
2016-10-25T15:00:36.368Z,24064
2016-10-25T15:01:47.130Z,23488
2016-10-25T15:02:57.853Z,22336
2016-10-25T15:04:09.357Z,20992
2016-10-25T15:05:20.067Z,20032
2016-10-25T15:06:30.785Z,20480
2016-10-25T15:07:41.878Z,21664
2016-10-25T15:08:53.050Z,23296
2016-10-25T15:10:04.212Z,24864
2016-10-25T15:11:15.435Z,25056
2016-10-25T15:12:26.580Z,24320
2016-10-25T15:13:37.732Z,24096
2016-10-25T15:14:48.890Z,24640
2016-10-25T15:16:00.061Z,25408
2016-10-25T15:17:11.203Z,26016
2016-10-25T15:18:22.365Z,26624
2016-10-25T15:19:33.563Z,26816
2016-10-25T15:20:44.732Z,26304
2016-10-25T15:21:55.908Z,24992
2016-10-25T15:23:07.055Z,23616
2016-10-25T15:24:18.222Z,22816
2016-10-25T15:25:29.390Z,22752
2016-10-25T15:26:40.569Z,23296
2016-10-25T15:27:51.725Z,23584
2016-10-25T15:29:02.887Z,23232
2016-10-25T15:30:14.032Z,22912
2016-10-25T15:31:25.203Z,21984
2016-10-25T15:32:36.369Z,20832
2016-10-25T15:33:48.107Z,19232
2016-10-25T15:34:59.258Z,17856
2016-10-25T15:36:10.401Z,17236
2016-10-25T15:37:21.596Z,17920
2016-10-25T15:38:32.901Z,19392
2016-10-25T15:39:44.080Z,21600
2016-10-25T15:40:55.261Z,24416
2016-10-25T15:42:06.428Z,27744
2016-10-25T15:43:17.581Z,31072
2016-10-25T15:44:28.762Z,33984
2016-10-25T15:45:39.948Z,36832
2016-10-25T15:46:51.137Z,38784
2016-10-25T15:48:02.289Z,38816
2016-10-25T15:49:13.479Z,37696
2016-10-25T15:50:24.638Z,36128
2016-10-25T15:51:35.778Z,33440
2016-10-25T15:52:46.960Z,30528
2016-10-25T15:53:58.703Z,28000
2016-10-25T15:55:09.858Z,25920
2016-10-25T15:56:21.038Z,24480
2016-10-25T15:57:32.191Z,23424
2016-10-25T15:58:43.337Z,22624
2016-10-25T15:59:54.509Z,22016
2016-10-25T16:01:05.676Z,22112
2016-10-25T16:02:16.882Z,23360
2016-10-25T16:03:28.074Z,25504
2016-10-25T16:04:39.246Z,28000
2016-10-25T16:05:50.411Z,30432
2016-10-25T16:07:01.611Z,32032
2016-10-25T16:08:12.779Z,32320
2016-10-25T16:09:23.957Z,32064
2016-10-25T16:10:35.131Z,32544
2016-10-25T16:11:46.314Z,33088
2016-10-25T16:12:57.480Z,33856
2016-10-25T16:14:09.210Z,34080
2016-10-25T16:15:20.399Z,33888
2016-10-25T16:16:31.769Z,33056
2016-10-25T16:17:42.979Z,31872
2016-10-25T16:18:54.156Z,31104
2016-10-25T16:20:05.342Z,31488
2016-10-25T16:21:16.518Z,32032